createdAt,value
2022-10-13T00:01:09.898Z,9.10
2022-10-13T00:03:40.409Z,3.40
2022-10-13T00:06:10.406Z,2.90
2022-10-13T00:08:38.999Z,5.30
2022-10-13T00:11:15.276Z,3.45
2022-10-13T00:13:43.762Z,3.47
2022-10-13T00:16:14.423Z,2.28
2022-10-13T00:18:41.963Z,2.78
2022-10-13T00:21:14.423Z,2.25
2022-10-13T00:23:42.331Z,2.58
2022-10-13T00:26:11.699Z,2.90
2022-10-13T00:28:40.003Z,1.05
2022-10-13T00:31:28.350Z,1.73
2022-10-13T00:33:55.893Z,2.30
2022-10-13T00:36:23.935Z,1.75
2022-10-13T00:38:52.780Z,2.67
2022-10-13T00:41:21.402Z,2.70
2022-10-13T00:43:55.641Z,1.90
2022-10-13T00:46:24.985Z,2.35
2022-10-13T00:49:18.867Z,1.30
2022-10-13T00:51:49.168Z,0.73
2022-10-13T00:54:20.626Z,2.38
2022-10-13T00:56:49.158Z,1.45
2022-10-13T00:59:23.345Z,3.13
2022-10-13T01:01:54.558Z,2.85
2022-10-13T01:04:25.853Z,2.63
2022-10-13T01:06:54.989Z,1.60
2022-10-13T01:09:22.255Z,2.47
2022-10-13T01:12:25.982Z,1.13
2022-10-13T01:15:14.737Z,4.03
2022-10-13T01:18:29.667Z,2.40
2022-10-13T01:20:59.812Z,1.10
2022-10-13T01:23:45.168Z,2.53
2022-10-13T01:26:31.037Z,1.40
2022-10-13T01:29:13.396Z,1.92
2022-10-13T01:31:40.709Z,1.48
2022-10-13T01:34:16.724Z,1.70
2022-10-13T01:37:09.818Z,2.40
2022-10-13T01:39:45.502Z,0.93
2022-10-13T01:42:18.990Z,1.80
2022-10-13T01:44:51.750Z,1.83
2022-10-13T01:47:20.937Z,1.63
2022-10-13T01:49:55.125Z,4.22
2022-10-13T01:52:26.558Z,2.47
2022-10-13T01:54:55.111Z,2.65
2022-10-13T01:57:36.453Z,2.90
2022-10-13T02:00:10.430Z,3.10
2022-10-13T02:03:03.048Z,2.28
2022-10-13T02:05:49.432Z,1.67
2022-10-13T02:08:37.349Z,2.10
2022-10-13T02:11:20.022Z,1.20
2022-10-13T02:13:59.157Z,2.38
2022-10-13T02:16:34.075Z,3.58
2022-10-13T02:19:05.363Z,1.23
2022-10-13T02:21:33.059Z,1.05
2022-10-13T02:24:04.389Z,1.20
2022-10-13T02:26:33.256Z,1.17
2022-10-13T02:29:15.927Z,1.13
2022-10-13T02:31:44.342Z,1.05
2022-10-13T02:34:11.971Z,1.85
2022-10-13T02:36:39.950Z,3.05
2022-10-13T02:39:09.203Z,0.60
2022-10-13T02:41:36.796Z,1.98
2022-10-13T02:44:04.630Z,2.80
2022-10-13T02:46:36.949Z,1.38
2022-10-13T02:49:04.221Z,0.60
2022-10-13T02:51:34.157Z,2.53
2022-10-13T02:54:04.849Z,1.08
2022-10-13T02:56:32.216Z,1.40
2022-10-13T02:58:59.450Z,1.15
2022-10-13T03:01:26.780Z,1.38
2022-10-13T03:03:54.052Z,2.58
2022-10-13T03:06:21.440Z,1.77
2022-10-13T03:08:48.666Z,1.85
2022-10-13T03:11:15.897Z,1.00
2022-10-13T03:13:43.183Z,0.95
2022-10-13T03:16:10.438Z,2.25
2022-10-13T03:18:37.868Z,0.57
2022-10-13T03:21:06.794Z,0.65
2022-10-13T03:23:34.594Z,3.92
2022-10-13T03:26:02.725Z,2.15
2022-10-13T03:28:30.358Z,1.52
2022-10-13T03:31:06.640Z,0.50
2022-10-13T03:33:34.099Z,1.80
2022-10-13T03:36:03.278Z,1.73
2022-10-13T03:38:32.365Z,0.60
2022-10-13T03:41:05.353Z,2.05
2022-10-13T03:43:32.686Z,0.70
2022-10-13T03:46:01.640Z,0.40
2022-10-13T03:48:29.130Z,0.90
2022-10-13T03:50:56.549Z,2.25
2022-10-13T03:53:24.294Z,4.15
2022-10-13T03:55:56.430Z,1.25
2022-10-13T03:58:25.577Z,2.10
2022-10-13T04:00:53.993Z,0.70
2022-10-13T04:03:21.750Z,1.20
2022-10-13T04:05:48.986Z,1.00
2022-10-13T04:08:17.344Z,1.27
2022-10-13T04:10:44.619Z,2.13
2022-10-13T04:13:11.913Z,1.77
2022-10-13T04:15:41.674Z,1.90
2022-10-13T04:18:09.050Z,2.38
2022-10-13T04:20:39.046Z,2.85
2022-10-13T04:23:08.367Z,1.08
2022-10-13T04:25:55.843Z,1.65
2022-10-13T04:28:25.224Z,2.42
2022-10-13T04:30:52.545Z,5.68
2022-10-13T04:33:19.968Z,1.35
2022-10-13T04:35:47.295Z,1.55
2022-10-13T04:38:14.552Z,2.80
2022-10-13T04:40:41.948Z,1.85
2022-10-13T04:43:09.209Z,1.05
2022-10-13T04:45:36.726Z,0.88
2022-10-13T04:48:04.082Z,1.20
2022-10-13T04:50:31.316Z,1.10
2022-10-13T04:52:59.811Z,2.13
2022-10-13T04:55:27.334Z,2.67
2022-10-13T04:57:54.620Z,0.98
2022-10-13T05:00:22.205Z,0.70
2022-10-13T05:02:49.507Z,1.10
2022-10-13T05:05:16.837Z,2.40
2022-10-13T05:07:44.135Z,2.55
2022-10-13T05:10:11.542Z,0.70
2022-10-13T05:12:38.869Z,0.88
2022-10-13T05:15:06.682Z,2.03
2022-10-13T05:17:35.538Z,2.80
2022-10-13T05:20:09.270Z,4.80
2022-10-13T05:22:36.672Z,2.75
2022-10-13T05:25:04.700Z,1.15
2022-10-13T05:27:32.054Z,5.28
2022-10-13T05:30:03.591Z,1.55
2022-10-13T05:32:31.056Z,1.20
2022-10-13T05:34:58.313Z,2.05
2022-10-13T05:37:25.623Z,1.35
2022-10-13T05:39:52.908Z,3.72
2022-10-13T05:42:20.377Z,3.42
2022-10-13T05:44:47.841Z,2.38
2022-10-13T05:47:15.085Z,3.83
2022-10-13T05:49:42.447Z,2.10
2022-10-13T05:52:11.968Z,1.88
2022-10-13T05:54:50.000Z,3.72
2022-10-13T05:57:22.294Z,1.67
2022-10-13T06:00:08.531Z,1.90
2022-10-13T06:03:10.901Z,2.70
2022-10-13T06:05:45.306Z,1.05
2022-10-13T06:08:12.610Z,1.83
2022-10-13T06:10:40.314Z,3.17
2022-10-13T06:13:07.610Z,1.35
2022-10-13T06:15:34.912Z,1.15
2022-10-13T06:18:02.822Z,3.63
2022-10-13T06:20:30.115Z,2.83
2022-10-13T06:22:57.791Z,1.50
2022-10-13T06:25:25.432Z,4.10
2022-10-13T06:27:52.672Z,1.60
2022-10-13T06:30:19.914Z,2.80
2022-10-13T06:32:47.208Z,3.22
2022-10-13T06:35:14.709Z,2.05
2022-10-13T06:37:41.980Z,1.42
2022-10-13T06:40:11.100Z,1.90
2022-10-13T06:42:38.380Z,2.22
2022-10-13T06:45:09.956Z,3.47
2022-10-13T06:47:39.532Z,2.95
2022-10-13T06:50:07.123Z,1.80
2022-10-13T06:52:34.371Z,1.98
2022-10-13T06:55:01.567Z,2.75
2022-10-13T06:57:29.721Z,1.30
2022-10-13T06:59:57.931Z,2.33
2022-10-13T07:02:25.134Z,3.80
2022-10-13T07:04:52.656Z,2.63
2022-10-13T07:07:19.911Z,3.33
2022-10-13T07:09:48.126Z,2.35
2022-10-13T07:12:15.704Z,1.98
2022-10-13T07:14:43.917Z,2.78
2022-10-13T07:17:11.532Z,2.22
2022-10-13T07:19:38.870Z,3.22
2022-10-13T07:22:06.141Z,2.30
2022-10-13T07:24:33.382Z,2.10
2022-10-13T07:27:05.310Z,4.07
2022-10-13T07:29:34.874Z,2.55
2022-10-13T07:32:02.287Z,4.15
2022-10-13T07:34:29.716Z,3.53
2022-10-13T07:36:57.408Z,3.10
2022-10-13T07:39:24.742Z,3.90
2022-10-13T07:41:52.083Z,2.58
2022-10-13T07:44:19.499Z,2.72
2022-10-13T07:46:46.860Z,3.05
2022-10-13T07:49:16.229Z,2.55
2022-10-13T07:51:44.531Z,4.30
2022-10-13T07:54:12.022Z,4.00
2022-10-13T07:56:39.939Z,4.50
2022-10-13T07:59:07.824Z,3.70
2022-10-13T08:01:35.243Z,7.60
2022-10-13T08:04:02.623Z,8.48
2022-10-13T08:06:29.970Z,8.35
2022-10-13T08:09:00.683Z,7.78
2022-10-13T08:11:28.554Z,6.20
2022-10-13T08:14:00.710Z,6.00
2022-10-13T08:16:29.562Z,5.47
2022-10-13T08:18:59.978Z,6.78
2022-10-13T08:24:17.621Z,5.43
2022-10-13T08:26:46.493Z,8.15
2022-10-13T08:29:23.569Z,6.13
2022-10-13T08:31:53.431Z,4.63
2022-10-13T08:34:22.426Z,8.23
2022-10-13T08:36:53.634Z,6.20
2022-10-13T08:39:22.714Z,8.27
2022-10-13T08:41:50.828Z,6.70
2022-10-13T08:47:42.132Z,6.05
2022-10-13T08:50:19.604Z,6.32
2022-10-13T08:53:03.256Z,8.30
2022-10-13T08:55:43.706Z,7.78
2022-10-13T08:58:32.282Z,4.53
2022-10-13T09:01:21.761Z,2.55
2022-10-13T09:04:00.863Z,2.00
2022-10-13T09:06:40.940Z,2.92
2022-10-13T09:09:15.674Z,4.25
2022-10-13T09:14:27.901Z,2.17
2022-10-13T09:17:12.175Z,2.63
2022-10-13T09:19:40.982Z,3.38
2022-10-13T09:22:35.238Z,3.63
2022-10-13T09:25:11.143Z,3.30
2022-10-13T09:27:53.990Z,3.13
2022-10-13T09:30:39.446Z,4.00
2022-10-13T09:33:09.760Z,2.30
2022-10-13T09:35:38.374Z,4.80
2022-10-13T09:38:26.805Z,5.22
2022-10-13T09:41:09.072Z,1.95
2022-10-13T09:43:58.054Z,1.33
2022-10-13T09:46:33.016Z,3.45
2022-10-13T09:49:31.540Z,1.58
2022-10-13T09:52:02.699Z,3.50
2022-10-13T09:54:44.759Z,1.67
2022-10-13T09:57:12.995Z,3.47
2022-10-13T09:59:47.272Z,1.52
2022-10-13T10:02:31.135Z,2.47
2022-10-13T10:05:05.396Z,1.37
2022-10-13T10:07:33.988Z,2.83
2022-10-13T10:10:06.845Z,5.90
2022-10-13T10:12:37.448Z,6.82
2022-10-13T10:15:17.797Z,2.83
2022-10-13T10:18:07.747Z,3.05
2022-10-13T10:20:44.430Z,1.25
2022-10-13T10:23:44.099Z,1.25
2022-10-13T10:26:28.828Z,2.03
2022-10-13T10:29:20.100Z,0.70
2022-10-13T10:32:15.946Z,1.63
2022-10-13T10:34:47.897Z,2.15
2022-10-13T10:37:21.247Z,0.45
2022-10-13T10:40:03.689Z,1.65
2022-10-13T10:42:58.899Z,3.78
2022-10-13T10:45:35.483Z,2.28
2022-10-13T10:48:18.260Z,1.80
2022-10-13T10:50:46.094Z,4.05
2022-10-13T10:53:29.616Z,1.75
2022-10-13T10:55:58.827Z,3.50
2022-10-13T10:58:42.585Z,2.75
2022-10-13T11:01:22.348Z,2.03
2022-10-13T11:04:21.011Z,1.05
2022-10-13T11:06:48.265Z,3.95
2022-10-13T11:09:35.428Z,2.67
2022-10-13T11:12:02.642Z,5.68
2022-10-13T11:14:31.154Z,9.77
2022-10-13T11:16:58.332Z,7.50
2022-10-13T11:19:33.824Z,5.00
2022-10-13T11:22:01.023Z,2.70
2022-10-13T11:24:37.491Z,4.20
2022-10-13T11:27:10.782Z,5.28
2022-10-13T11:29:44.330Z,3.05
2022-10-13T11:32:27.233Z,3.88
2022-10-13T11:35:06.758Z,6.85
2022-10-13T11:38:06.110Z,3.17
2022-10-13T11:40:52.472Z,6.88
2022-10-13T11:43:38.066Z,4.35
2022-10-13T11:46:40.794Z,4.97
2022-10-13T11:49:20.704Z,4.80
2022-10-13T11:52:20.836Z,1.92
2022-10-13T11:55:26.739Z,4.10
2022-10-13T11:58:08.968Z,3.55
2022-10-13T12:00:36.343Z,3.17
2022-10-13T12:03:03.728Z,4.63
2022-10-13T12:05:32.339Z,2.55
2022-10-13T12:08:04.148Z,2.83
2022-10-13T12:10:33.863Z,3.45
2022-10-13T12:13:04.442Z,2.97
2022-10-13T12:15:42.129Z,3.83
2022-10-13T12:18:28.460Z,7.78
2022-10-13T12:20:58.763Z,2.40
2022-10-13T12:23:27.128Z,4.38
2022-10-13T12:25:58.455Z,4.15
2022-10-13T12:28:56.257Z,2.17
2022-10-13T12:31:47.801Z,1.67
2022-10-13T12:34:21.795Z,4.85
2022-10-13T12:37:18.443Z,4.18
2022-10-13T12:39:46.955Z,2.15
2022-10-13T12:42:15.294Z,4.10
2022-10-13T12:44:43.000Z,2.63
2022-10-13T12:47:39.737Z,2.33
2022-10-13T12:50:31.068Z,1.65
2022-10-13T12:53:09.661Z,1.80
2022-10-13T12:55:56.082Z,3.22
2022-10-13T12:58:24.741Z,1.00
2022-10-13T13:00:58.094Z,2.65
2022-10-13T13:03:27.891Z,2.58
2022-10-13T13:06:13.489Z,2.05
2022-10-13T13:08:42.726Z,1.10
2022-10-13T13:11:23.764Z,1.23
2022-10-13T13:14:22.708Z,4.55
2022-10-13T13:17:13.461Z,3.22
2022-10-13T13:19:43.021Z,2.75
2022-10-13T13:22:10.977Z,1.95
2022-10-13T13:24:40.568Z,1.67
2022-10-13T13:27:24.907Z,2.88
2022-10-13T13:29:54.210Z,1.17
2022-10-13T13:32:23.404Z,0.98
2022-10-13T13:34:51.074Z,2.58
2022-10-13T13:37:31.995Z,3.28
2022-10-13T13:39:59.794Z,1.50
2022-10-13T13:42:30.409Z,0.93
2022-10-13T13:44:58.216Z,1.38
2022-10-13T13:47:28.265Z,1.88
2022-10-13T13:49:57.318Z,1.50
2022-10-13T13:52:25.899Z,1.52
2022-10-13T13:54:53.454Z,1.02
2022-10-13T13:57:21.155Z,0.82
2022-10-13T13:59:48.739Z,0.55
2022-10-13T14:02:19.834Z,1.50
2022-10-13T14:04:47.308Z,1.85
2022-10-13T14:07:14.624Z,1.33
2022-10-13T14:09:42.107Z,3.10
2022-10-13T14:12:10.444Z,1.15
2022-10-13T14:14:37.998Z,1.42
2022-10-13T14:17:05.904Z,1.42
2022-10-13T14:19:33.960Z,0.65
2022-10-13T14:22:05.814Z,0.93
2022-10-13T14:27:04.861Z,2.55
2022-10-13T14:29:32.136Z,2.05
2022-10-13T14:31:59.487Z,1.55
2022-10-13T14:34:26.881Z,3.60
2022-10-13T14:36:54.113Z,0.43
2022-10-13T14:39:21.380Z,1.00
2022-10-13T14:41:48.633Z,1.48
2022-10-13T14:44:15.902Z,2.58
2022-10-13T14:46:45.606Z,0.38
2022-10-13T14:49:12.978Z,1.77
2022-10-13T14:51:43.607Z,4.15
2022-10-13T14:54:10.904Z,2.85
2022-10-13T14:56:38.128Z,1.42
2022-10-13T14:59:07.217Z,0.90
2022-10-13T15:01:40.307Z,1.75
2022-10-13T15:04:07.963Z,2.00
2022-10-13T15:06:35.810Z,2.10
2022-10-13T15:09:03.103Z,1.55
2022-10-13T15:11:30.354Z,3.25
2022-10-13T15:13:57.572Z,1.30
2022-10-13T15:16:28.049Z,0.93
2022-10-13T15:18:56.176Z,2.15
2022-10-13T15:21:24.096Z,0.60
2022-10-13T15:23:51.429Z,0.60
2022-10-13T15:26:20.194Z,1.45
2022-10-13T15:28:50.757Z,3.50
2022-10-13T15:31:19.777Z,0.82
2022-10-13T15:33:52.447Z,1.45
2022-10-13T15:36:22.359Z,1.17
2022-10-13T15:38:50.361Z,1.75
2022-10-13T15:41:18.645Z,1.70
2022-10-13T15:43:45.956Z,2.10
2022-10-13T15:46:21.363Z,1.13
2022-10-13T15:48:53.406Z,0.25
2022-10-13T15:51:22.954Z,1.40
2022-10-13T15:53:50.545Z,0.82
2022-10-13T15:56:17.708Z,1.23
2022-10-13T15:58:45.673Z,0.63
2022-10-13T16:01:14.256Z,1.65
2022-10-13T16:03:42.337Z,0.90
2022-10-13T16:06:12.036Z,0.63
2022-10-13T16:08:40.938Z,0.38
2022-10-13T16:11:13.211Z,2.05
2022-10-13T16:13:41.750Z,1.58
2022-10-13T16:16:09.074Z,1.95
2022-10-13T16:18:38.552Z,0.70
2022-10-13T16:21:26.083Z,2.38
2022-10-13T16:23:53.393Z,0.90
2022-10-13T16:26:21.618Z,0.38
2022-10-13T16:28:49.166Z,1.15
2022-10-13T16:31:17.381Z,0.60
2022-10-13T16:33:46.179Z,0.40
2022-10-13T16:36:18.932Z,0.30
2022-10-13T16:38:48.266Z,1.05
2022-10-13T16:41:18.335Z,1.20
2022-10-13T16:43:46.508Z,0.57
2022-10-13T16:46:16.641Z,0.30
2022-10-13T16:48:45.048Z,2.25
2022-10-13T16:51:18.875Z,0.52
2022-10-13T16:53:53.378Z,0.82
2022-10-13T16:58:51.307Z,1.67
2022-10-13T17:01:19.503Z,3.55
2022-10-13T17:03:48.197Z,0.70
2022-10-13T17:06:16.195Z,2.17
2022-10-13T17:08:44.757Z,1.05
2022-10-13T17:11:23.699Z,1.23
2022-10-13T17:13:51.820Z,1.58
2022-10-13T17:16:20.269Z,2.92
2022-10-13T17:18:47.489Z,2.45
2022-10-13T17:21:17.394Z,1.42
2022-10-13T17:23:48.538Z,0.98
2022-10-13T17:26:18.120Z,4.88
2022-10-13T17:28:46.021Z,1.60
2022-10-13T17:31:22.256Z,0.95
2022-10-13T17:33:50.854Z,1.42
2022-10-13T17:36:24.988Z,2.53
2022-10-13T17:38:54.234Z,2.08
2022-10-13T17:41:22.034Z,2.42
2022-10-13T17:43:51.431Z,0.93
2022-10-13T17:46:38.422Z,5.45
2022-10-13T17:49:08.054Z,3.72
2022-10-13T17:51:35.349Z,1.80
2022-10-13T17:54:02.653Z,2.10
2022-10-13T17:56:30.260Z,2.67
2022-10-13T17:58:57.693Z,1.58
2022-10-13T18:01:33.940Z,3.45
2022-10-13T18:04:05.029Z,3.97
2022-10-13T18:06:38.497Z,2.20
2022-10-13T18:09:08.386Z,4.55
2022-10-13T18:11:36.346Z,2.05
2022-10-13T18:14:03.791Z,1.90
2022-10-13T18:16:31.092Z,2.88
2022-10-13T18:18:58.378Z,3.75
2022-10-13T18:21:29.404Z,4.65
2022-10-13T18:24:00.973Z,8.95
2022-10-13T18:26:32.237Z,5.13
2022-10-13T18:28:59.641Z,4.47
2022-10-13T18:31:32.303Z,5.47
2022-10-13T18:34:02.581Z,8.68
2022-10-13T18:36:38.593Z,4.60
2022-10-13T18:39:14.791Z,7.93
2022-10-13T18:41:45.808Z,5.63
2022-10-13T18:44:13.706Z,6.32
2022-10-13T18:46:41.813Z,4.60
2022-10-13T18:49:12.674Z,5.03
2022-10-13T18:51:42.458Z,3.53
2022-10-13T18:54:10.202Z,6.28
2022-10-13T18:56:37.918Z,5.20
2022-10-13T18:59:07.496Z,5.50
2022-10-13T19:01:36.780Z,9.40
2022-10-13T19:04:05.055Z,4.32
2022-10-13T19:06:32.842Z,3.75
2022-10-13T19:09:02.473Z,5.47
2022-10-13T19:11:30.741Z,4.82
2022-10-13T19:13:59.763Z,7.63
2022-10-13T19:16:29.527Z,3.42
2022-10-13T19:18:57.304Z,8.98
2022-10-13T19:21:25.098Z,5.93
2022-10-13T19:23:52.644Z,4.32
2022-10-13T19:26:28.501Z,4.28
2022-10-13T19:28:59.313Z,8.68
2022-10-13T19:31:29.218Z,4.63
2022-10-13T19:33:57.978Z,5.82
2022-10-13T19:36:31.945Z,8.07
2022-10-13T19:39:04.220Z,6.20
2022-10-13T19:41:32.493Z,4.45
2022-10-13T19:44:01.168Z,7.75
2022-10-13T19:46:42.934Z,9.98
2022-10-13T19:49:12.332Z,10.35
2022-10-13T19:54:13.446Z,8.73
2022-10-13T19:56:47.327Z,10.05
2022-10-13T19:59:14.895Z,10.57
2022-10-13T20:01:42.217Z,8.25
2022-10-13T20:04:18.661Z,7.88
2022-10-13T20:06:49.905Z,11.07
2022-10-13T20:09:19.027Z,8.13
2022-10-13T20:11:48.378Z,8.27
2022-10-13T20:14:16.433Z,11.90
2022-10-13T20:16:43.699Z,11.23
2022-10-13T20:19:13.151Z,5.18
2022-10-13T20:21:42.512Z,6.85
2022-10-13T20:24:13.150Z,6.65
2022-10-13T20:26:41.155Z,7.60
2022-10-13T20:29:08.725Z,7.72
2022-10-13T20:31:36.631Z,6.35
2022-10-13T20:34:04.143Z,5.97
2022-10-13T20:36:36.056Z,7.57
2022-10-13T20:39:06.078Z,4.45
2022-10-13T20:41:34.547Z,7.28
2022-10-13T20:44:02.131Z,7.45
2022-10-13T20:46:33.052Z,5.53
2022-10-13T20:49:16.051Z,5.30
2022-10-13T20:51:43.739Z,4.63
2022-10-13T20:54:13.029Z,8.77
2022-10-13T20:56:40.605Z,7.18
2022-10-13T20:59:10.642Z,5.97
2022-10-13T21:01:38.574Z,4.72
2022-10-13T21:04:06.198Z,5.88
2022-10-13T21:06:34.551Z,3.63
2022-10-13T21:09:05.370Z,4.93
2022-10-13T21:11:33.436Z,6.18
2022-10-13T21:14:02.935Z,4.28
2022-10-13T21:16:31.275Z,8.15
2022-10-13T21:18:59.458Z,8.57
2022-10-13T21:21:32.017Z,7.28
2022-10-13T21:24:01.712Z,5.72
2022-10-13T21:26:30.938Z,7.00
2022-10-13T21:28:58.760Z,8.13
2022-10-13T21:31:27.255Z,5.38
2022-10-13T21:33:55.468Z,7.38
2022-10-13T21:36:28.437Z,5.28
2022-10-13T21:38:59.285Z,6.78
2022-10-13T21:41:27.558Z,6.95
2022-10-13T21:43:55.210Z,7.13
2022-10-13T21:46:28.185Z,9.15
2022-10-13T21:49:01.991Z,6.95
2022-10-13T21:51:32.262Z,7.50
2022-10-13T21:54:02.165Z,4.07
2022-10-13T21:56:31.637Z,7.07
2022-10-13T21:58:59.811Z,9.23
2022-10-13T22:01:27.757Z,9.98
2022-10-13T22:03:57.343Z,7.22
2022-10-13T22:06:28.516Z,5.97
2022-10-13T22:08:57.776Z,5.63
2022-10-13T22:11:28.438Z,9.27
2022-10-13T22:13:57.497Z,5.65
2022-10-13T22:16:27.547Z,4.80
2022-10-13T22:18:56.499Z,8.90
2022-10-13T22:21:30.145Z,4.85
2022-10-13T22:24:00.473Z,6.65
2022-10-13T22:26:29.913Z,6.32
2022-10-13T22:28:59.198Z,5.40
2022-10-13T22:31:27.184Z,6.63
2022-10-13T22:33:55.091Z,5.90
2022-10-13T22:36:24.744Z,6.45
2022-10-13T22:38:55.898Z,7.15
2022-10-13T22:41:23.418Z,8.00
2022-10-13T22:43:53.154Z,6.70
2022-10-13T22:46:23.349Z,10.05
2022-10-13T22:48:51.011Z,7.00
2022-10-13T22:51:21.113Z,6.50
2022-10-13T22:53:49.127Z,8.05
2022-10-13T22:56:19.459Z,6.15
2022-10-13T22:58:57.022Z,7.00
2022-10-13T23:01:25.226Z,4.63
2022-10-13T23:03:55.712Z,6.22
2022-10-13T23:06:26.018Z,5.20
2022-10-13T23:08:54.005Z,7.53
2022-10-13T23:11:21.701Z,6.00
2022-10-13T23:13:49.454Z,4.82
2022-10-13T23:16:19.603Z,5.70
2022-10-13T23:18:47.036Z,6.03
2022-10-13T23:21:26.248Z,6.72
2022-10-13T23:24:06.120Z,3.85
2022-10-13T23:26:34.798Z,5.15
2022-10-13T23:29:02.278Z,5.07
2022-10-13T23:31:29.951Z,5.18
2022-10-13T23:33:58.694Z,5.38
2022-10-13T23:36:29.036Z,5.30
2022-10-13T23:38:59.034Z,6.82
2022-10-13T23:41:26.855Z,6.45
2022-10-13T23:43:54.434Z,5.63
2022-10-13T23:46:21.834Z,6.18
2022-10-13T23:48:49.199Z,8.05
2022-10-13T23:51:22.153Z,8.32
2022-10-13T23:53:49.838Z,6.10
2022-10-13T23:56:18.543Z,6.97
2022-10-13T23:58:46.189Z,7.68
